sensor_id;sensor_type;location;lat;lon;timestamp;pressure;altitude;pressure_sealevel;temperature;humidity
36062;BME280;22123;52.412;20.970;2023-01-16T00:00:07;99546.25;;;3.24;100.00
36062;BME280;22123;52.412;20.970;2023-01-16T00:02:33;99541.09;;;3.22;100.00
36062;BME280;22123;52.412;20.970;2023-01-16T00:04:58;99553.72;;;3.20;100.00
36062;BME280;22123;52.412;20.970;2023-01-16T00:07:23;99545.03;;;3.18;100.00
36062;BME280;22123;52.412;20.970;2023-01-16T00:09:48;99550.78;;;3.13;100.00
36062;BME280;22123;52.412;20.970;2023-01-16T00:12:13;99541.28;;;3.11;100.00
36062;BME280;22123;52.412;20.970;2023-01-16T00:14:38;99543.25;;;3.09;100.00
36062;BME280;22123;52.412;20.970;2023-01-16T00:17:04;99550.38;;;3.08;100.00
36062;BME280;22123;52.412;20.970;2023-01-16T00:19:29;99541.88;;;3.05;100.00
36062;BME280;22123;52.412;20.970;2023-01-16T00:21:54;99542.31;;;3.00;100.00
36062;BME280;22123;52.412;20.970;2023-01-16T00:24:19;99537.44;;;2.95;100.00
36062;BME280;22123;52.412;20.970;2023-01-16T00:26:44;99536.03;;;2.91;100.00
36062;BME280;22123;52.412;20.970;2023-01-16T00:29:09;99543.75;;;2.85;100.00
36062;BME280;22123;52.412;20.970;2023-01-16T00:31:35;99549.50;;;2.80;100.00
36062;BME280;22123;52.412;20.970;2023-01-16T00:34:00;99545.75;;;2.73;100.00
36062;BME280;22123;52.412;20.970;2023-01-16T00:36:25;99544.34;;;2.69;100.00
36062;BME280;22123;52.412;20.970;2023-01-16T00:38:50;99558.09;;;2.64;100.00
36062;BME280;22123;52.412;20.970;2023-01-16T00:41:15;99541.72;;;2.59;100.00
36062;BME280;22123;52.412;20.970;2023-01-16T00:43:41;99554.19;;;2.58;100.00
36062;BME280;22123;52.412;20.970;2023-01-16T00:46:06;99553.75;;;2.53;100.00
36062;BME280;22123;52.412;20.970;2023-01-16T00:48:31;99562.00;;;2.50;100.00
36062;BME280;22123;52.412;20.970;2023-01-16T00:50:56;99550.56;;;2.50;100.00
36062;BME280;22123;52.412;20.970;2023-01-16T00:53:21;99555.88;;;2.50;100.00
36062;BME280;22123;52.412;20.970;2023-01-16T00:55:46;99543.84;;;2.46;100.00
36062;BME280;22123;52.412;20.970;2023-01-16T00:58:12;99545.81;;;2.43;100.00
36062;BME280;22123;52.412;20.970;2023-01-16T01:00:37;99550.41;;;2.41;100.00
36062;BME280;22123;52.412;20.970;2023-01-16T01:03:02;99554.19;;;2.39;100.00
36062;BME280;22123;52.412;20.970;2023-01-16T01:05:28;99557.28;;;2.34;100.00
36062;BME280;22123;52.412;20.970;2023-01-16T01:07:53;99553.22;;;2.30;100.00
36062;BME280;22123;52.412;20.970;2023-01-16T01:10:18;99563.31;;;2.26;100.00
36062;BME280;22123;52.412;20.970;2023-01-16T01:12:43;99552.13;;;2.23;100.00
36062;BME280;22123;52.412;20.970;2023-01-16T01:15:09;99557.84;;;2.18;100.00
36062;BME280;22123;52.412;20.970;2023-01-16T01:17:34;99555.75;;;2.12;100.00
36062;BME280;22123;52.412;20.970;2023-01-16T01:19:59;99562.31;;;2.08;100.00
36062;BME280;22123;52.412;20.970;2023-01-16T01:22:24;99556.34;;;2.06;100.00
36062;BME280;22123;52.412;20.970;2023-01-16T01:24:49;99549.47;;;2.03;100.00
36062;BME280;22123;52.412;20.970;2023-01-16T01:27:15;99547.50;;;2.05;100.00
36062;BME280;22123;52.412;20.970;2023-01-16T01:29:40;99550.88;;;2.07;100.00
36062;BME280;22123;52.412;20.970;2023-01-16T01:32:05;99555.47;;;2.05;100.00
36062;BME280;22123;52.412;20.970;2023-01-16T01:34:31;99559.94;;;2.05;100.00
36062;BME280;22123;52.412;20.970;2023-01-16T01:36:56;99557.59;;;2.02;100.00
36062;BME280;22123;52.412;20.970;2023-01-16T01:39:22;99560.38;;;2.00;100.00
36062;BME280;22123;52.412;20.970;2023-01-16T01:41:47;99561.22;;;2.01;100.00
36062;BME280;22123;52.412;20.970;2023-01-16T01:46:56;99562.19;;;2.00;100.00
36062;BME280;22123;52.412;20.970;2023-01-16T01:49:22;99546.38;;;1.98;100.00
36062;BME280;22123;52.412;20.970;2023-01-16T01:51:49;99551.69;;;1.98;100.00
36062;BME280;22123;52.412;20.970;2023-01-16T01:54:16;99544.59;;;1.99;100.00
36062;BME280;22123;52.412;20.970;2023-01-16T01:56:44;99542.06;;;1.97;100.00
36062;BME280;22123;52.412;20.970;2023-01-16T01:59:12;99541.22;;;1.97;100.00
36062;BME280;22123;52.412;20.970;2023-01-16T02:01:39;99539.72;;;1.94;100.00
36062;BME280;22123;52.412;20.970;2023-01-16T02:04:05;99541.50;;;1.94;100.00
36062;BME280;22123;52.412;20.970;2023-01-16T02:06:34;99539.13;;;1.90;100.00
36062;BME280;22123;52.412;20.970;2023-01-16T02:09:02;99536.75;;;1.87;100.00
36062;BME280;22123;52.412;20.970;2023-01-16T02:11:35;99534.94;;;1.88;100.00
36062;BME280;22123;52.412;20.970;2023-01-16T02:14:04;99538.84;;;1.84;100.00
36062;BME280;22123;52.412;20.970;2023-01-16T02:16:30;99539.25;;;1.79;100.00
36062;BME280;22123;52.412;20.970;2023-01-16T02:18:55;99535.91;;;1.77;100.00
36062;BME280;22123;52.412;20.970;2023-01-16T02:39:07;99518.41;;;1.55;100.00
36062;BME280;22123;52.412;20.970;2023-01-16T02:44:17;99510.03;;;1.50;100.00
36062;BME280;22123;52.412;20.970;2023-01-16T02:46:58;99504.88;;;1.48;100.00
36062;BME280;22123;52.412;20.970;2023-01-16T02:49:29;99510.31;;;1.47;100.00
36062;BME280;22123;52.412;20.970;2023-01-16T02:52:04;99508.09;;;1.42;100.00
36062;BME280;22123;52.412;20.970;2023-01-16T02:54:36;99510.28;;;1.37;100.00
36062;BME280;22123;52.412;20.970;2023-01-16T02:57:05;99524.25;;;1.29;100.00
36062;BME280;22123;52.412;20.970;2023-01-16T02:59:32;99524.66;;;1.25;100.00
36062;BME280;22123;52.412;20.970;2023-01-16T03:01:57;99526.72;;;1.21;100.00
36062;BME280;22123;52.412;20.970;2023-01-16T03:12:36;99529.38;;;1.21;100.00
36062;BME280;22123;52.412;20.970;2023-01-16T03:15:10;99527.13;;;1.16;100.00
36062;BME280;22123;52.412;20.970;2023-01-16T03:18:39;99527.28;;;1.15;100.00
36062;BME280;22123;52.412;20.970;2023-01-16T03:20:39;99523.91;;;1.13;100.00
36062;BME280;22123;52.412;20.970;2023-01-16T03:23:12;99520.56;;;1.11;100.00
36062;BME280;22123;52.412;20.970;2023-01-16T03:26:02;99522.63;;;1.07;100.00
36062;BME280;22123;52.412;20.970;2023-01-16T03:28:29;99529.31;;;1.01;100.00
36062;BME280;22123;52.412;20.970;2023-01-16T03:31:32;99543.09;;;0.95;100.00
36062;BME280;22123;52.412;20.970;2023-01-16T03:33:55;99524.25;;;0.89;100.00
36062;BME280;22123;52.412;20.970;2023-01-16T03:36:24;99530.78;;;0.84;100.00
36062;BME280;22123;52.412;20.970;2023-01-16T03:38:53;99515.00;;;0.83;100.00
36062;BME280;22123;52.412;20.970;2023-01-16T03:41:21;99520.75;;;0.88;100.00
36062;BME280;22123;52.412;20.970;2023-01-16T03:43:49;99515.63;;;0.96;100.00
36062;BME280;22123;52.412;20.970;2023-01-16T03:46:20;99525.94;;;0.99;100.00
36062;BME280;22123;52.412;20.970;2023-01-16T03:48:49;99534.16;;;0.96;100.00
36062;BME280;22123;52.412;20.970;2023-01-16T03:51:20;99531.94;;;0.92;100.00
36062;BME280;22123;52.412;20.970;2023-01-16T03:53:47;99528.69;;;0.88;100.00
36062;BME280;22123;52.412;20.970;2023-01-16T03:56:20;99523.53;;;0.86;100.00
36062;BME280;22123;52.412;20.970;2023-01-16T03:58:45;99531.75;;;0.83;100.00
36062;BME280;22123;52.412;20.970;2023-01-16T04:01:14;99516.94;;;0.81;100.00
36062;BME280;22123;52.412;20.970;2023-01-16T04:04:02;99516.81;;;0.82;100.00
36062;BME280;22123;52.412;20.970;2023-01-16T04:08:59;99521.16;;;0.83;100.00
36062;BME280;22123;52.412;20.970;2023-01-16T04:11:27;99521.16;;;0.83;100.00
36062;BME280;22123;52.412;20.970;2023-01-16T04:13:54;99523.94;;;0.82;100.00
36062;BME280;22123;52.412;20.970;2023-01-16T04:16:21;99516.94;;;0.81;100.00
36062;BME280;22123;52.412;20.970;2023-01-16T04:18:46;99515.16;;;0.81;100.00
36062;BME280;22123;52.412;20.970;2023-01-16T04:21:14;99522.84;;;0.84;100.00
36062;BME280;22123;52.412;20.970;2023-01-16T04:23:39;99531.59;;;0.85;100.00
36062;BME280;22123;52.412;20.970;2023-01-16T04:26:04;99534.25;;;0.85;100.00
36062;BME280;22123;52.412;20.970;2023-01-16T04:28:29;99521.72;;;0.87;100.00
36062;BME280;22123;52.412;20.970;2023-01-16T04:30:54;99529.13;;;0.93;100.00
36062;BME280;22123;52.412;20.970;2023-01-16T04:33:19;99529.69;;;0.97;100.00
36062;BME280;22123;52.412;20.970;2023-01-16T04:35:45;99531.78;;;0.93;100.00
36062;BME280;22123;52.412;20.970;2023-01-16T04:38:10;99528.56;;;0.90;100.00
36062;BME280;22123;52.412;20.970;2023-01-16T04:40:35;99520.34;;;0.93;100.00
36062;BME280;22123;52.412;20.970;2023-01-16T04:43:00;99522.16;;;0.92;100.00
36062;BME280;22123;52.412;20.970;2023-01-16T04:45:25;99525.75;;;0.91;100.00
36062;BME280;22123;52.412;20.970;2023-01-16T04:47:51;99525.91;;;0.90;100.00
36062;BME280;22123;52.412;20.970;2023-01-16T04:50:16;99517.41;;;0.86;100.00
36062;BME280;22123;52.412;20.970;2023-01-16T04:52:42;99529.38;;;0.80;100.00
36062;BME280;22123;52.412;20.970;2023-01-16T04:55:07;99541.06;;;0.78;100.00
36062;BME280;22123;52.412;20.970;2023-01-16T04:57:33;99533.38;;;0.75;100.00
36062;BME280;22123;52.412;20.970;2023-01-16T04:59:58;99535.75;;;0.78;100.00
36062;BME280;22123;52.412;20.970;2023-01-16T05:02:23;99537.56;;;0.77;100.00
36062;BME280;22123;52.412;20.970;2023-01-16T05:04:48;99533.50;;;0.73;100.00
36062;BME280;22123;52.412;20.970;2023-01-16T05:07:13;99536.44;;;0.70;100.00
36062;BME280;22123;52.412;20.970;2023-01-16T05:09:39;99542.41;;;0.72;100.00
36062;BME280;22123;52.412;20.970;2023-01-16T05:12:04;99541.31;;;0.75;100.00
36062;BME280;22123;52.412;20.970;2023-01-16T05:14:29;99535.63;;;0.79;100.00
36062;BME280;22123;52.412;20.970;2023-01-16T05:16:54;99536.47;;;0.80;100.00
36062;BME280;22123;52.412;20.970;2023-01-16T05:19:19;99544.44;;;0.80;100.00
36062;BME280;22123;52.412;20.970;2023-01-16T05:21:44;99542.16;;;0.75;100.00
36062;BME280;22123;52.412;20.970;2023-01-16T05:24:10;99543.41;;;0.71;100.00
36062;BME280;22123;52.412;20.970;2023-01-16T05:26:35;99538.47;;;0.66;100.00
36062;BME280;22123;52.412;20.970;2023-01-16T05:29:00;99542.94;;;0.66;100.00
36062;BME280;22123;52.412;20.970;2023-01-16T05:31:25;99534.31;;;0.64;100.00
36062;BME280;22123;52.412;20.970;2023-01-16T05:33:51;99523.84;;;0.62;100.00
36062;BME280;22123;52.412;20.970;2023-01-16T05:36:16;99520.34;;;0.62;100.00
36062;BME280;22123;52.412;20.970;2023-01-16T05:38:41;99516.59;;;0.64;100.00
36062;BME280;22123;52.412;20.970;2023-01-16T05:41:06;99503.47;;;0.63;100.00
36062;BME280;22123;52.412;20.970;2023-01-16T05:43:31;99514.78;;;0.65;100.00
36062;BME280;22123;52.412;20.970;2023-01-16T05:45:56;99511.56;;;0.61;100.00
36062;BME280;22123;52.412;20.970;2023-01-16T05:48:22;99509.31;;;0.57;100.00
36062;BME280;22123;52.412;20.970;2023-01-16T05:50:47;99517.25;;;0.57;100.00
36062;BME280;22123;52.412;20.970;2023-01-16T05:53:12;99515.44;;;0.57;100.00
36062;BME280;22123;52.412;20.970;2023-01-16T05:55:56;99518.22;;;0.56;100.00
36062;BME280;22123;52.412;20.970;2023-01-16T05:58:22;99517.50;;;0.54;100.00
36062;BME280;22123;52.412;20.970;2023-01-16T06:00:47;99520.53;;;0.49;100.00
36062;BME280;22123;52.412;20.970;2023-01-16T06:03:12;99512.03;;;0.45;100.00
36062;BME280;22123;52.412;20.970;2023-01-16T06:05:37;99499.19;;;0.41;100.00
36062;BME280;22123;52.412;20.970;2023-01-16T06:08:02;99510.75;;;0.40;100.00
36062;BME280;22123;52.412;20.970;2023-01-16T06:10:28;99509.91;;;0.39;100.00
36062;BME280;22123;52.412;20.970;2023-01-16T06:12:53;99509.19;;;0.37;100.00
36062;BME280;22123;52.412;20.970;2023-01-16T06:15:18;99504.84;;;0.36;100.00
36062;BME280;22123;52.412;20.970;2023-01-16T06:17:44;99501.25;;;0.37;100.00
36062;BME280;22123;52.412;20.970;2023-01-16T06:20:10;99505.59;;;0.38;100.00
36062;BME280;22123;52.412;20.970;2023-01-16T06:22:35;99503.06;;;0.37;100.00
36062;BME280;22123;52.412;20.970;2023-01-16T06:25:00;99507.50;;;0.36;100.00
36062;BME280;22123;52.412;20.970;2023-01-16T06:27:26;99509.06;;;0.39;100.00
36062;BME280;22123;52.412;20.970;2023-01-16T06:29:51;99510.34;;;0.44;100.00
36062;BME280;22123;52.412;20.970;2023-01-16T06:32:16;99510.94;;;0.48;100.00
36062;BME280;22123;52.412;20.970;2023-01-16T06:34:44;99511.50;;;0.51;100.00
36062;BME280;22123;52.412;20.970;2023-01-16T06:37:10;99513.88;;;0.55;100.00
36062;BME280;22123;52.412;20.970;2023-01-16T06:39:35;99520.75;;;0.57;100.00
36062;BME280;22123;52.412;20.970;2023-01-16T06:42:00;99515.19;;;0.60;100.00
36062;BME280;22123;52.412;20.970;2023-01-16T06:44:26;99511.16;;;0.66;100.00
36062;BME280;22123;52.412;20.970;2023-01-16T06:46:51;99514.13;;;0.73;100.00
36062;BME280;22123;52.412;20.970;2023-01-16T06:49:16;99515.78;;;0.74;100.00
36062;BME280;22123;52.412;20.970;2023-01-16T06:51:41;99517.34;;;0.76;100.00
36062;BME280;22123;52.412;20.970;2023-01-16T06:54:06;99507.47;;;0.78;100.00
36062;BME280;22123;52.412;20.970;2023-01-16T06:56:32;99508.72;;;0.84;100.00
36062;BME280;22123;52.412;20.970;2023-01-16T06:58:57;99516.28;;;0.89;100.00
36062;BME280;22123;52.412;20.970;2023-01-16T07:01:22;99509.03;;;0.91;100.00
36062;BME280;22123;52.412;20.970;2023-01-16T07:03:47;99516.44;;;0.97;100.00
36062;BME280;22123;52.412;20.970;2023-01-16T07:06:12;99517.03;;;1.00;100.00
36062;BME280;22123;52.412;20.970;2023-01-16T07:08:37;99522.06;;;1.03;100.00
36062;BME280;22123;52.412;20.970;2023-01-16T07:11:03;99521.66;;;1.08;100.00
36062;BME280;22123;52.412;20.970;2023-01-16T07:13:28;99521.09;;;1.14;100.00
36062;BME280;22123;52.412;20.970;2023-01-16T07:15:53;99521.41;;;1.21;100.00
36062;BME280;22123;52.412;20.970;2023-01-16T07:18:19;99519.94;;;1.38;100.00
36062;BME280;22123;52.412;20.970;2023-01-16T07:20:46;99521.53;;;1.70;100.00
36062;BME280;22123;52.412;20.970;2023-01-16T07:23:18;99511.03;;;1.88;100.00
36062;BME280;22123;52.412;20.970;2023-01-16T07:25:43;99504.34;;;1.94;100.00
36062;BME280;22123;52.412;20.970;2023-01-16T07:28:09;99504.75;;;1.89;100.00
36062;BME280;22123;52.412;20.970;2023-01-16T07:30:34;99499.88;;;1.84;100.00
36062;BME280;22123;52.412;20.970;2023-01-16T07:32:59;99500.84;;;1.83;100.00
36062;BME280;22123;52.412;20.970;2023-01-16T07:35:24;99500.31;;;1.80;100.00
36062;BME280;22123;52.412;20.970;2023-01-16T07:37:49;99498.47;;;1.80;100.00
36062;BME280;22123;52.412;20.970;2023-01-16T07:40:15;99494.00;;;1.81;100.00
36062;BME280;22123;52.412;20.970;2023-01-16T07:42:40;99493.72;;;1.84;100.00
36062;BME280;22123;52.412;20.970;2023-01-16T07:45:05;99491.78;;;1.86;100.00
36062;BME280;22123;52.412;20.970;2023-01-16T07:47:32;99500.13;;;1.91;100.00
36062;BME280;22123;52.412;20.970;2023-01-16T07:49:57;99499.31;;;2.00;100.00
36062;BME280;22123;52.412;20.970;2023-01-16T07:52:23;99503.63;;;2.11;100.00
36062;BME280;22123;52.412;20.970;2023-01-16T07:54:48;99503.31;;;2.34;100.00
36062;BME280;22123;52.412;20.970;2023-01-16T07:57:13;99496.53;;;2.59;100.00
36062;BME280;22123;52.412;20.970;2023-01-16T07:59:38;99504.03;;;2.83;100.00
36062;BME280;22123;52.412;20.970;2023-01-16T08:02:03;99495.22;;;3.10;100.00
36062;BME280;22123;52.412;20.970;2023-01-16T08:04:28;99493.00;;;3.34;100.00
36062;BME280;22123;52.412;20.970;2023-01-16T08:06:54;99502.84;;;3.51;100.00
36062;BME280;22123;52.412;20.970;2023-01-16T08:09:19;99505.19;;;3.54;100.00
36062;BME280;22123;52.412;20.970;2023-01-16T08:11:44;99502.63;;;3.62;100.00
36062;BME280;22123;52.412;20.970;2023-01-16T08:14:09;99493.56;;;3.73;100.00
36062;BME280;22123;52.412;20.970;2023-01-16T08:16:34;99494.00;;;3.87;100.00
36062;BME280;22123;52.412;20.970;2023-01-16T08:18:59;99495.22;;;3.92;100.00
36062;BME280;22123;52.412;20.970;2023-01-16T08:21:25;99497.75;;;3.94;100.00
36062;BME280;22123;52.412;20.970;2023-01-16T08:23:50;99494.88;;;3.87;100.00
36062;BME280;22123;52.412;20.970;2023-01-16T08:26:15;99498.00;;;3.82;100.00
36062;BME280;22123;52.412;20.970;2023-01-16T08:28:40;99508.16;;;3.69;100.00
36062;BME280;22123;52.412;20.970;2023-01-16T08:31:06;99503.34;;;3.55;100.00
36062;BME280;22123;52.412;20.970;2023-01-16T08:33:32;99501.09;;;3.42;100.00
36062;BME280;22123;52.412;20.970;2023-01-16T08:35:57;99498.31;;;3.34;100.00
36062;BME280;22123;52.412;20.970;2023-01-16T08:38:22;99495.41;;;3.27;100.00
36062;BME280;22123;52.412;20.970;2023-01-16T08:40:48;99488.72;;;3.23;100.00
36062;BME280;22123;52.412;20.970;2023-01-16T08:43:13;99490.41;;;3.24;100.00
36062;BME280;22123;52.412;20.970;2023-01-16T08:45:38;99489.41;;;3.25;100.00
36062;BME280;22123;52.412;20.970;2023-01-16T08:48:03;99495.56;;;3.25;100.00
36062;BME280;22123;52.412;20.970;2023-01-16T08:50:28;99495.09;;;3.30;100.00
36062;BME280;22123;52.412;20.970;2023-01-16T08:52:54;99491.16;;;3.34;100.00
36062;BME280;22123;52.412;20.970;2023-01-16T08:55:19;99490.88;;;3.37;100.00
36062;BME280;22123;52.412;20.970;2023-01-16T08:57:44;99486.09;;;3.41;100.00
36062;BME280;22123;52.412;20.970;2023-01-16T09:00:09;99483.53;;;3.49;100.00
36062;BME280;22123;52.412;20.970;2023-01-16T09:02:34;99476.16;;;3.61;100.00
36062;BME280;22123;52.412;20.970;2023-01-16T09:05:00;99470.91;;;3.69;100.00
36062;BME280;22123;52.412;20.970;2023-01-16T09:07:25;99469.00;;;3.79;100.00
36062;BME280;22123;52.412;20.970;2023-01-16T09:09:50;99469.78;;;3.90;100.00
36062;BME280;22123;52.412;20.970;2023-01-16T09:12:15;99468.69;;;4.00;100.00
36062;BME280;22123;52.412;20.970;2023-01-16T09:14:40;99458.56;;;4.04;100.00
36062;BME280;22123;52.412;20.970;2023-01-16T09:17:06;99458.09;;;4.09;100.00
36062;BME280;22123;52.412;20.970;2023-01-16T09:19:31;99460.28;;;4.13;100.00
36062;BME280;22123;52.412;20.970;2023-01-16T09:21:57;99460.13;;;4.15;100.00
36062;BME280;22123;52.412;20.970;2023-01-16T09:24:22;99457.31;;;4.16;100.00
36062;BME280;22123;52.412;20.970;2023-01-16T09:26:47;99456.66;;;4.14;100.00
36062;BME280;22123;52.412;20.970;2023-01-16T09:29:12;99459.31;;;4.14;100.00
36062;BME280;22123;52.412;20.970;2023-01-16T09:31:37;99450.31;;;4.15;100.00
36062;BME280;22123;52.412;20.970;2023-01-16T09:34:02;99454.50;;;4.18;100.00
36062;BME280;22123;52.412;20.970;2023-01-16T09:36:28;99452.38;;;4.22;100.00
36062;BME280;22123;52.412;20.970;2023-01-16T09:38:53;99450.69;;;4.21;100.00
36062;BME280;22123;52.412;20.970;2023-01-16T09:41:18;99439.72;;;4.24;100.00
36062;BME280;22123;52.412;20.970;2023-01-16T09:43:46;99440.69;;;4.23;100.00
36062;BME280;22123;52.412;20.970;2023-01-16T09:46:14;99439.41;;;4.27;100.00
36062;BME280;22123;52.412;20.970;2023-01-16T09:51:19;99437.84;;;4.42;100.00
36062;BME280;22123;52.412;20.970;2023-01-16T09:53:50;99430.19;;;4.47;100.00
36062;BME280;22123;52.412;20.970;2023-01-16T09:56:16;99433.22;;;4.52;100.00
36062;BME280;22123;52.412;20.970;2023-01-16T09:58:46;99426.94;;;4.62;100.00
36062;BME280;22123;52.412;20.970;2023-01-16T10:01:16;99435.13;;;4.68;100.00
36062;BME280;22123;52.412;20.970;2023-01-16T10:03:44;99431.16;;;4.73;100.00
36062;BME280;22123;52.412;20.970;2023-01-16T10:06:21;99428.69;;;4.79;100.00
36062;BME280;22123;52.412;20.970;2023-01-16T10:19:05;99408.41;;;4.95;100.00
36062;BME280;22123;52.412;20.970;2023-01-16T10:29:24;99386.38;;;4.84;100.00
36062;BME280;22123;52.412;20.970;2023-01-16T10:31:56;99386.38;;;4.84;100.00
36062;BME280;22123;52.412;20.970;2023-01-16T10:34:23;99382.22;;;4.90;100.00
36062;BME280;22123;52.412;20.970;2023-01-16T10:36:51;99384.91;;;4.90;100.00
36062;BME280;22123;52.412;20.970;2023-01-16T10:39:18;99379.06;;;4.95;100.00
36062;BME280;22123;52.412;20.970;2023-01-16T10:41:46;99376.56;;;4.93;100.00
36062;BME280;22123;52.412;20.970;2023-01-16T10:46:49;99366.88;;;4.92;100.00
36062;BME280;22123;52.412;20.970;2023-01-16T10:49:15;99363.22;;;4.93;100.00
36062;BME280;22123;52.412;20.970;2023-01-16T10:51:40;99370.91;;;4.96;100.00
36062;BME280;22123;52.412;20.970;2023-01-16T10:54:06;99357.88;;;4.85;100.00
36062;BME280;22123;52.412;20.970;2023-01-16T10:56:31;99346.69;;;4.81;100.00
36062;BME280;22123;52.412;20.970;2023-01-16T10:58:56;99345.00;;;4.72;100.00
36062;BME280;22123;52.412;20.970;2023-01-16T11:01:22;99347.66;;;4.72;100.00
36062;BME280;22123;52.412;20.970;2023-01-16T11:03:50;99347.31;;;4.67;100.00
36062;BME280;22123;52.412;20.970;2023-01-16T11:06:20;99346.50;;;4.66;100.00
36062;BME280;22123;52.412;20.970;2023-01-16T11:09:27;99340.63;;;4.63;100.00
36062;BME280;22123;52.412;20.970;2023-01-16T11:11:34;99336.63;;;4.59;100.00
36062;BME280;22123;52.412;20.970;2023-01-16T11:14:00;99334.13;;;4.57;100.00
36062;BME280;22123;52.412;20.970;2023-01-16T11:16:28;99327.09;;;4.56;100.00
36062;BME280;22123;52.412;20.970;2023-01-16T11:18:53;99322.63;;;4.57;100.00
36062;BME280;22123;52.412;20.970;2023-01-16T11:23:52;99302.28;;;4.56;100.00
36062;BME280;22123;52.412;20.970;2023-01-16T11:26:21;99304.47;;;4.60;100.00
36062;BME280;22123;52.412;20.970;2023-01-16T11:28:46;99299.81;;;4.62;100.00
36062;BME280;22123;52.412;20.970;2023-01-16T11:31:22;99294.81;;;4.59;100.00
36062;BME280;22123;52.412;20.970;2023-01-16T11:33:49;99303.00;;;4.58;100.00
36062;BME280;22123;52.412;20.970;2023-01-16T11:36:16;99299.31;;;4.59;100.00
36062;BME280;22123;52.412;20.970;2023-01-16T11:38:42;99302.66;;;4.61;100.00
36062;BME280;22123;52.412;20.970;2023-01-16T11:41:09;99285.31;;;4.65;100.00
36062;BME280;22123;52.412;20.970;2023-01-16T11:43:34;99291.31;;;4.59;100.00
36062;BME280;22123;52.412;20.970;2023-01-16T11:45:59;99287.28;;;4.55;100.00
36062;BME280;22123;52.412;20.970;2023-01-16T11:48:36;99284.63;;;4.55;100.00
36062;BME280;22123;52.412;20.970;2023-01-16T11:51:03;99280.31;;;4.53;100.00
36062;BME280;22123;52.412;20.970;2023-01-16T11:53:30;99268.78;;;4.53;100.00
36062;BME280;22123;52.412;20.970;2023-01-16T11:56:22;99265.31;;;4.52;100.00
36062;BME280;22123;52.412;20.970;2023-01-16T12:01:27;99248.28;;;4.45;100.00
36062;BME280;22123;52.412;20.970;2023-01-16T12:06:43;99251.94;;;4.36;100.00
36062;BME280;22123;52.412;20.970;2023-01-16T12:12:10;99248.25;;;4.29;100.00
36062;BME280;22123;52.412;20.970;2023-01-16T12:14:38;99248.41;;;4.27;100.00
36062;BME280;22123;52.412;20.970;2023-01-16T12:17:28;99245.88;;;4.26;100.00
36062;BME280;22123;52.412;20.970;2023-01-16T12:20:08;99244.56;;;4.22;100.00
36062;BME280;22123;52.412;20.970;2023-01-16T12:25:08;99239.53;;;4.18;100.00
36062;BME280;22123;52.412;20.970;2023-01-16T12:37:51;99225.34;;;4.02;100.00
36062;BME280;22123;52.412;20.970;2023-01-16T12:45:26;99214.00;;;3.99;100.00
36062;BME280;22123;52.412;20.970;2023-01-16T13:00:33;99189.81;;;3.85;100.00
36062;BME280;22123;52.412;20.970;2023-01-16T13:06:05;99167.28;;;3.71;100.00
36062;BME280;22123;52.412;20.970;2023-01-16T13:08:46;99158.63;;;3.69;100.00
36062;BME280;22123;52.412;20.970;2023-01-16T13:11:15;99160.28;;;3.61;100.00
36062;BME280;22123;52.412;20.970;2023-01-16T13:13:49;99157.78;;;3.60;100.00
36062;BME280;22123;52.412;20.970;2023-01-16T13:16:29;99146.75;;;3.55;100.00
36062;BME280;22123;52.412;20.970;2023-01-16T13:19:00;99151.72;;;3.50;100.00
36062;BME280;22123;52.412;20.970;2023-01-16T13:21:33;99141.75;;;3.52;100.00
36062;BME280;22123;52.412;20.970;2023-01-16T13:24:01;99147.41;;;3.48;100.00
36062;BME280;22123;52.412;20.970;2023-01-16T13:26:28;99156.69;;;3.44;100.00
36062;BME280;22123;52.412;20.970;2023-01-16T13:34:09;99151.91;;;3.56;100.00
36062;BME280;22123;52.412;20.970;2023-01-16T13:39:32;99155.31;;;3.67;100.00
36062;BME280;22123;52.412;20.970;2023-01-16T13:42:02;99151.31;;;3.71;100.00
36062;BME280;22123;52.412;20.970;2023-01-16T13:44:30;99144.50;;;3.68;100.00
36062;BME280;22123;52.412;20.970;2023-01-16T13:47:05;99147.81;;;3.70;100.00
36062;BME280;22123;52.412;20.970;2023-01-16T13:49:32;99144.66;;;3.67;100.00
36062;BME280;22123;52.412;20.970;2023-01-16T13:52:00;99145.81;;;3.64;100.00
36062;BME280;22123;52.412;20.970;2023-01-16T13:54:31;99143.00;;;3.65;100.00
36062;BME280;22123;52.412;20.970;2023-01-16T13:57:01;99134.13;;;3.57;100.00
36062;BME280;22123;52.412;20.970;2023-01-16T14:01:53;99128.59;;;3.50;100.00
36062;BME280;22123;52.412;20.970;2023-01-16T14:06:45;99136.09;;;3.46;100.00
36062;BME280;22123;52.412;20.970;2023-01-16T14:09:29;99133.09;;;3.50;100.00
36062;BME280;22123;52.412;20.970;2023-01-16T14:14:28;99125.06;;;3.41;100.00
36062;BME280;22123;52.412;20.970;2023-01-16T14:17:00;99120.41;;;3.35;100.00
36062;BME280;22123;52.412;20.970;2023-01-16T14:19:26;99111.28;;;3.38;100.00
36062;BME280;22123;52.412;20.970;2023-01-16T14:22:02;99108.88;;;3.26;100.00
36062;BME280;22123;52.412;20.970;2023-01-16T14:24:27;99101.53;;;3.20;100.00
36062;BME280;22123;52.412;20.970;2023-01-16T14:26:57;99103.66;;;3.17;100.00
36062;BME280;22123;52.412;20.970;2023-01-16T14:29:27;99100.28;;;3.06;100.00
36062;BME280;22123;52.412;20.970;2023-01-16T14:34:38;99092.25;;;2.98;100.00
36062;BME280;22123;52.412;20.970;2023-01-16T14:37:15;99089.75;;;2.96;100.00
36062;BME280;22123;52.412;20.970;2023-01-16T14:40:04;99090.06;;;2.93;100.00
36062;BME280;22123;52.412;20.970;2023-01-16T14:42:28;99092.22;;;2.90;100.00
36062;BME280;22123;52.412;20.970;2023-01-16T14:44:58;99081.75;;;2.88;100.00
36062;BME280;22123;52.412;20.970;2023-01-16T14:47:24;99081.59;;;2.90;100.00
36062;BME280;22123;52.412;20.970;2023-01-16T14:52:34;99080.75;;;2.89;100.00